Antrim, New Hampshire
Current Conditions -  °F | °C
As of 10:16 AM on Wednesday 22 Oct 2014 (Local Time) from KAFN Reporting Station
Light Rain Light Rain  
Wind Chill: 44°   Ceiling: 200
Heat Index: 47°   Visibility: 1.7mi
Dew Point: 45°   Wind: 7mph
Humidity: 93%   Direction: 20°NNE
Pressure: 30.08"   Gusts: NA
Location:  43.03°N, 71.95°W
Report Text: KAFN 221416Z AUTO 02006KT 1 3/4SM -RA BR OVC002 08/07 A3008 RMK AO2 CIG 002V007 P0003 T00830072
Loading
Personal Weather Stations






























Interactive Weather Map New forecast layout! Learn more

10-Day Weather Forecast

Advertisements
Track Severe Weather on mobile